EETN/TLL METAR and TAF weather

Enter ICAO airport designator
Station Type Date Time Source
EETN METAR 2021/10/24 20:50 UTC NOAA

EETN 242050Z 20009KT CAVOK 06/04 Q1020 NOSIG


Station Type Date Time Source
EETN Decoded METAR 2021/10/24 20:50 UTC NOAA

Tallinn, Estonia (EETN) 59-24N 024-49E 34M
Oct 24, 2021 - 04:50 PM EDT / 2021.10.24 2050 UTC
Wind: from the SSW (200 degrees) at 10 MPH (9 KT):0
Visibility: greater than 7 mile(s):0
Temperature: 42 F (6 C)
Dew Point: 39 F (4 C)
Relative Humidity: 86%
Pressure (altimeter): 30.12 in. Hg (1020 hPa)
ob: EETN 242050Z 20009KT CAVOK 06/04 Q1020 NOSIG
cycle: 21

Station Type Date Time Source
EETN TAF 2021/10/24 18:03 UTC NOAA

TAF TAF EETN 241700Z 2418/2518 18010KT 9999 SCT020 BKN040
TEMPO 2420/2504 19015G25KT 4000 SHRA BKN006 SCT020CB
BECMG 2504/2506 24014KT
TEMPO 2509/2512 4000 SHRA SCT015CB OVC025

Example: see airport list